createdAt,value
2023-02-12T00:01:00.053Z,0
2023-02-12T00:01:59.889Z,0
2023-02-12T00:02:59.990Z,0
2023-02-12T00:04:00.775Z,0
2023-02-12T00:05:00.001Z,0
2023-02-12T00:06:01.088Z,0
2023-02-12T00:07:00.194Z,0
2023-02-12T00:08:00.197Z,0
2023-02-12T00:08:59.924Z,0
2023-02-12T00:09:59.885Z,0
2023-02-12T00:11:00.119Z,0
2023-02-12T00:11:59.603Z,0
2023-02-12T00:12:59.560Z,0
2023-02-12T00:13:59.835Z,0
2023-02-12T00:14:59.789Z,0
2023-02-12T00:16:01.443Z,0
2023-02-12T00:16:59.515Z,0
2023-02-12T00:17:59.736Z,0
2023-02-12T00:18:59.696Z,0
2023-02-12T00:19:59.731Z,0
2023-02-12T00:20:59.979Z,0
2023-02-12T00:21:59.705Z,0
2023-02-12T00:22:59.646Z,0
2023-02-12T00:23:59.660Z,0
2023-02-12T00:24:59.352Z,0
2023-02-12T00:26:00.402Z,0
2023-02-12T00:26:59.307Z,0
2023-02-12T00:27:59.685Z,0
2023-02-12T00:28:59.832Z,0
2023-02-12T00:29:59.549Z,0
2023-02-12T00:31:00.348Z,0
2023-02-12T00:32:00.085Z,0
2023-02-12T00:32:59.726Z,0
2023-02-12T00:33:59.494Z,0
2023-02-12T00:35:00.373Z,0
2023-02-12T00:36:01.200Z,0
2023-02-12T00:37:00.096Z,0
2023-02-12T00:38:00.618Z,0
2023-02-12T00:39:00.670Z,0
2023-02-12T00:40:00.280Z,0
2023-02-12T00:41:00.503Z,0
2023-02-12T00:42:00.522Z,0
2023-02-12T00:43:00.538Z,0
2023-02-12T00:44:00.489Z,0
2023-02-12T00:45:00.196Z,0
2023-02-12T00:46:01.996Z,0
2023-02-12T00:47:00.411Z,0
2023-02-12T00:48:00.138Z,0
2023-02-12T00:49:00.407Z,0
2023-02-12T00:50:00.380Z,0
2023-02-12T00:51:00.329Z,0
2023-02-12T00:52:00.365Z,0
2023-02-12T00:53:00.105Z,0
2023-02-12T00:54:00.364Z,0
2023-02-12T00:55:00.010Z,0
2023-02-12T00:56:01.377Z,0
2023-02-12T00:57:00.249Z,0
2023-02-12T00:58:00.244Z,0
2023-02-12T00:58:59.934Z,0
2023-02-12T00:59:59.718Z,0
2023-02-12T01:00:59.933Z,0
2023-02-12T01:02:00.509Z,0
2023-02-12T01:02:59.872Z,0
2023-02-12T01:03:59.847Z,0
2023-02-12T01:04:59.827Z,0
2023-02-12T01:06:01.365Z,0
2023-02-12T01:07:00.056Z,0
2023-02-12T01:08:00.107Z,0
2023-02-12T01:08:59.518Z,0
2023-02-12T01:10:00.097Z,0
2023-02-12T01:10:59.790Z,0
2023-02-12T01:11:59.953Z,0
2023-02-12T01:12:59.684Z,0
2023-02-12T01:13:59.685Z,0
2023-02-12T01:14:59.665Z,0
2023-02-12T01:16:00.783Z,0
2023-02-12T01:16:59.369Z,0
2023-02-12T01:17:59.354Z,0
2023-02-12T01:19:02.626Z,0
2023-02-12T01:19:59.826Z,0
2023-02-12T01:20:59.843Z,0
2023-02-12T01:21:59.827Z,0
2023-02-12T01:22:59.270Z,0
2023-02-12T01:23:59.815Z,0
2023-02-12T01:24:59.730Z,0
2023-02-12T01:26:00.699Z,0
2023-02-12T01:26:59.708Z,0
2023-02-12T01:28:00.497Z,0
2023-02-12T01:28:59.415Z,0
2023-02-12T01:29:59.635Z,0
2023-02-12T01:30:59.708Z,0
2023-02-12T01:31:59.822Z,0
2023-02-12T01:32:59.598Z,0
2023-02-12T01:34:58.851Z,0
2023-02-12T01:35:59.733Z,0
2023-02-12T01:36:59.037Z,0
2023-02-12T01:38:02.298Z,0
2023-02-12T01:38:59.343Z,0
2023-02-12T01:39:59.104Z,0
2023-02-12T01:40:59.204Z,0
2023-02-12T01:41:59.559Z,0
2023-02-12T01:42:59.184Z,0
2023-02-12T01:43:59.418Z,0
2023-02-12T01:44:58.864Z,0
2023-02-12T01:46:00.446Z,0
2023-02-12T01:46:59.703Z,0
2023-02-12T01:47:58.828Z,0
2023-02-12T01:48:58.819Z,0
2023-02-12T01:49:59.071Z,0
2023-02-12T01:50:59.039Z,0
2023-02-12T01:51:59.001Z,0
2023-02-12T01:52:59.245Z,0
2023-02-12T01:53:58.984Z,0
2023-02-12T01:55:01.758Z,0
2023-02-12T01:55:59.969Z,0
2023-02-12T01:56:58.677Z,0
2023-02-12T01:57:59.208Z,0
2023-02-12T01:58:59.145Z,0
2023-02-12T01:59:59.119Z,0
2023-02-12T02:00:59.118Z,0
2023-02-12T02:01:59.448Z,0
2023-02-12T02:02:59.326Z,0
2023-02-12T02:03:58.538Z,0
2023-02-12T02:04:58.780Z,0
2023-02-12T02:06:00.113Z,0
2023-02-12T02:06:58.754Z,0
2023-02-12T02:07:58.983Z,0
2023-02-12T02:08:58.703Z,0
2023-02-12T02:09:58.946Z,0
2023-02-12T02:10:58.732Z,0
2023-02-12T02:11:58.380Z,0
2023-02-12T02:12:58.919Z,0
2023-02-12T02:13:58.924Z,0
2023-02-12T02:14:58.608Z,0
2023-02-12T02:15:59.550Z,0
2023-02-12T02:16:58.563Z,0
2023-02-12T02:17:58.303Z,0
2023-02-12T02:18:58.788Z,0
2023-02-12T02:19:58.528Z,0
2023-02-12T02:20:58.739Z,0
2023-02-12T02:21:58.486Z,0
2023-02-12T02:22:58.694Z,0
2023-02-12T02:23:58.714Z,0
2023-02-12T02:24:58.643Z,0
2023-02-12T02:25:59.073Z,0
2023-02-12T02:27:10.632Z,0
2023-02-12T02:27:58.654Z,0
2023-02-12T02:28:58.864Z,0
2023-02-12T02:29:58.620Z,0
2023-02-12T02:30:59.152Z,0
2023-02-12T02:31:59.102Z,0
2023-02-12T02:32:58.796Z,0
2023-02-12T02:33:59.405Z,0
2023-02-12T02:34:59.628Z,0
2023-02-12T02:36:00.150Z,0
2023-02-12T02:37:07.742Z,0
2023-02-12T02:37:59.081Z,0
2023-02-12T02:38:59.588Z,0
2023-02-12T02:39:59.552Z,0
2023-02-12T02:40:59.283Z,0
2023-02-12T02:41:59.507Z,0
2023-02-12T02:42:59.525Z,0
2023-02-12T02:43:59.251Z,0
2023-02-12T02:44:59.501Z,0
2023-02-12T02:46:00.019Z,0
2023-02-12T02:46:59.754Z,0
2023-02-12T02:47:59.593Z,0
2023-02-12T02:48:58.955Z,0
2023-02-12T02:49:59.121Z,0
2023-02-12T02:50:59.113Z,0
2023-02-12T02:51:58.839Z,0
2023-02-12T02:52:59.078Z,0
2023-02-12T02:53:59.086Z,0
2023-02-12T02:54:59.031Z,0
2023-02-12T02:56:00.203Z,0
2023-02-12T02:56:58.985Z,0
2023-02-12T02:57:59.000Z,0
2023-02-12T02:58:59.206Z,0
2023-02-12T02:59:58.679Z,0
2023-02-12T03:00:59.097Z,0
2023-02-12T03:01:59.171Z,0
2023-02-12T03:02:59.089Z,0
2023-02-12T03:03:59.229Z,0
2023-02-12T03:04:58.855Z,0
2023-02-12T03:06:00.045Z,0
2023-02-12T03:06:58.565Z,0
2023-02-12T03:07:58.796Z,0
2023-02-12T03:08:59.044Z,0
2023-02-12T03:09:58.760Z,0
2023-02-12T03:10:59.022Z,0
2023-02-12T03:11:58.736Z,0
2023-02-12T03:12:58.477Z,0
2023-02-12T03:13:58.716Z,0
2023-02-12T03:14:58.936Z,0
2023-02-12T03:15:59.896Z,0
2023-02-12T03:16:58.940Z,0
2023-02-12T03:17:58.669Z,0
2023-02-12T03:18:58.605Z,0
2023-02-12T03:19:58.960Z,0
2023-02-12T03:20:58.338Z,0
2023-02-12T03:21:58.568Z,0
2023-02-12T03:22:58.319Z,0
2023-02-12T03:23:58.784Z,0
2023-02-12T03:24:58.800Z,0
2023-02-12T03:25:59.446Z,0
2023-02-12T03:26:58.209Z,0
2023-02-12T03:27:58.530Z,0
2023-02-12T03:28:58.710Z,0
2023-02-12T03:29:58.667Z,0
2023-02-12T03:30:58.673Z,0
2023-02-12T03:31:58.208Z,0
2023-02-12T03:32:58.385Z,0
2023-02-12T03:50:11.137Z,0
2023-02-12T03:51:10.750Z,0
2023-02-12T03:52:10.188Z,0
2023-02-12T03:53:10.931Z,0
2023-02-12T03:54:10.915Z,0
2023-02-12T03:55:10.899Z,0
2023-02-12T03:56:10.382Z,0
2023-02-12T03:57:10.614Z,0
2023-02-12T03:58:10.826Z,0
2023-02-12T03:59:10.317Z,0
2023-02-12T04:00:10.858Z,0
2023-02-12T04:01:11.208Z,0
2023-02-12T04:02:10.771Z,0
2023-02-12T04:03:10.514Z,0
2023-02-12T04:04:10.907Z,0
2023-02-12T04:05:10.467Z,0
2023-02-12T04:06:10.815Z,0
2023-02-12T04:07:10.411Z,0
2023-02-12T04:08:10.140Z,0
2023-02-12T04:09:10.431Z,0
2023-02-12T04:10:10.367Z,0
2023-02-12T04:11:10.338Z,0
2023-02-12T04:12:10.345Z,0
2023-02-12T04:13:10.561Z,0
2023-02-12T04:14:10.731Z,0
2023-02-12T04:15:10.553Z,0
2023-02-12T04:16:10.714Z,0
2023-02-12T04:17:10.905Z,0
2023-02-12T04:18:10.759Z,0
2023-02-12T04:19:10.210Z,0
2023-02-12T04:20:10.195Z,0
2023-02-12T04:21:10.175Z,0
2023-02-12T04:22:10.510Z,0
2023-02-12T04:23:10.392Z,0
2023-02-12T04:24:10.120Z,0
2023-02-12T04:25:10.378Z,0
2023-02-12T04:26:10.304Z,0
2023-02-12T04:27:09.541Z,0
2023-02-12T04:28:10.375Z,0
2023-02-12T04:29:10.278Z,0
2023-02-12T04:30:10.016Z,0
2023-02-12T04:31:10.609Z,0
2023-02-12T04:32:09.977Z,0
2023-02-12T04:33:09.982Z,0
2023-02-12T04:34:09.712Z,0
2023-02-12T04:35:10.167Z,0
2023-02-12T04:36:09.650Z,0
2023-02-12T04:37:09.915Z,0
2023-02-12T04:38:10.457Z,0
2023-02-12T04:39:10.145Z,0
2023-02-12T04:40:10.046Z,0
2023-02-12T04:41:10.026Z,0
2023-02-12T04:42:10.303Z,0
2023-02-12T04:43:09.710Z,0
2023-02-12T04:44:10.210Z,0
2023-02-12T04:45:09.692Z,0
2023-02-12T04:46:09.925Z,0
2023-02-12T04:47:10.149Z,0
2023-02-12T04:48:10.125Z,0
2023-02-12T04:49:09.855Z,0
2023-02-12T04:50:10.119Z,0
2023-02-12T04:51:09.849Z,0
2023-02-12T04:52:10.062Z,0
2023-02-12T04:53:09.797Z,0
2023-02-12T04:54:11.112Z,0
2023-02-12T04:55:10.988Z,0
2023-02-12T04:56:10.786Z,0
2023-02-12T04:57:11.021Z,0
2023-02-12T04:58:10.979Z,0
2023-02-12T04:59:10.963Z,0
2023-02-12T05:00:10.693Z,0
2023-02-12T05:01:11.355Z,0
2023-02-12T05:02:11.186Z,0
2023-02-12T05:03:10.642Z,0
2023-02-12T05:04:10.873Z,0
2023-02-12T05:05:11.291Z,0
2023-02-12T05:06:10.860Z,0
2023-02-12T05:07:11.074Z,0
2023-02-12T05:08:11.057Z,0
2023-02-12T05:09:11.070Z,0
2023-02-12T05:10:11.145Z,0
2023-02-12T05:11:11.033Z,0
2023-02-12T05:12:10.504Z,0
2023-02-12T05:13:10.733Z,0
2023-02-12T05:14:11.634Z,0
2023-02-12T05:15:11.354Z,0
2023-02-12T05:16:12.101Z,0
2023-02-12T05:17:11.312Z,0
2023-02-12T05:18:11.309Z,0
2023-02-12T05:19:11.322Z,0
2023-02-12T05:20:11.030Z,0
2023-02-12T05:21:11.002Z,0
2023-02-12T05:22:10.993Z,0
2023-02-12T05:23:10.962Z,0
2023-02-12T05:24:11.442Z,0
2023-02-12T05:25:11.424Z,0
2023-02-12T05:26:11.614Z,0
2023-02-12T05:27:11.138Z,0
2023-02-12T05:28:11.590Z,0
2023-02-12T05:29:11.122Z,0
2023-02-12T05:30:11.348Z,0
2023-02-12T05:31:11.842Z,0
2023-02-12T05:32:11.983Z,0
2023-02-12T05:33:11.308Z,0
2023-02-12T05:34:10.769Z,0
2023-02-12T05:35:11.455Z,0
2023-02-12T05:36:10.993Z,0
2023-02-12T05:37:11.034Z,0
2023-02-12T05:38:10.950Z,0
2023-02-12T05:39:10.960Z,0
2023-02-12T05:40:10.418Z,0
2023-02-12T05:41:11.140Z,0
2023-02-12T05:42:11.281Z,0
2023-02-12T05:43:11.117Z,0
2023-02-12T05:44:10.847Z,0
2023-02-12T05:45:10.882Z,0
2023-02-12T05:46:10.848Z,0
2023-02-12T05:47:10.329Z,0
2023-02-12T05:48:10.540Z,0
2023-02-12T05:49:11.257Z,0
2023-02-12T05:50:11.539Z,0
2023-02-12T05:51:11.494Z,0
2023-02-12T05:52:11.455Z,0
2023-02-12T05:53:10.911Z,0
2023-02-12T05:54:11.161Z,0
2023-02-12T05:55:10.884Z,0
2023-02-12T05:56:11.380Z,0
2023-02-12T05:57:11.107Z,0
2023-02-12T05:58:11.481Z,0
2023-02-12T05:59:11.081Z,0
2023-02-12T06:00:11.055Z,4
2023-02-12T06:01:11.296Z,0
2023-02-12T06:02:11.401Z,0
2023-02-12T06:03:11.019Z,4
2023-02-12T06:04:11.603Z,4
2023-02-12T06:05:11.236Z,4
2023-02-12T06:06:10.961Z,4
2023-02-12T06:07:10.436Z,4
2023-02-12T06:08:10.901Z,4
2023-02-12T06:09:10.886Z,8
2023-02-12T06:10:10.623Z,8
2023-02-12T06:11:10.865Z,8
2023-02-12T06:12:11.080Z,12
2023-02-12T06:13:10.833Z,12
2023-02-12T06:14:11.167Z,16
2023-02-12T06:15:10.789Z,20
2023-02-12T06:16:11.133Z,20
2023-02-12T06:17:10.773Z,24
2023-02-12T06:18:10.768Z,28
2023-02-12T06:19:10.980Z,36
2023-02-12T06:20:10.956Z,40
2023-02-12T06:21:10.942Z,48
2023-02-12T06:22:10.678Z,52
2023-02-12T06:23:10.910Z,60
2023-02-12T06:24:10.673Z,68
2023-02-12T06:25:10.357Z,80
2023-02-12T06:26:10.858Z,88
2023-02-12T06:27:10.646Z,96
2023-02-12T06:28:11.080Z,108
2023-02-12T06:29:10.279Z,120
2023-02-12T06:30:10.909Z,128
2023-02-12T06:31:11.119Z,152
2023-02-12T06:32:11.365Z,164
2023-02-12T06:33:10.486Z,176
2023-02-12T06:34:10.219Z,188
2023-02-12T06:35:10.696Z,192
2023-02-12T06:36:10.689Z,212
2023-02-12T06:37:10.423Z,224
2023-02-12T06:38:10.647Z,236
2023-02-12T06:39:10.653Z,252
2023-02-12T06:40:10.359Z,284
2023-02-12T06:41:10.623Z,296
2023-02-12T06:42:10.359Z,300
2023-02-12T06:43:10.584Z,304
2023-02-12T06:44:10.573Z,312
2023-02-12T06:45:10.548Z,328
2023-02-12T06:46:10.758Z,348
2023-02-12T06:47:10.511Z,360
2023-02-12T06:48:10.503Z,376
2023-02-12T06:49:10.207Z,388
2023-02-12T06:50:10.188Z,432
2023-02-12T06:51:10.580Z,416
2023-02-12T06:52:10.637Z,444
2023-02-12T06:53:10.234Z,480
2023-02-12T06:54:09.892Z,480
2023-02-12T06:55:10.094Z,516
2023-02-12T06:56:10.117Z,528
2023-02-12T06:57:09.812Z,588
2023-02-12T06:58:10.047Z,544
2023-02-12T06:59:09.781Z,568
2023-02-12T07:00:10.289Z,588
2023-02-12T07:01:10.034Z,544
2023-02-12T07:02:10.371Z,504
2023-02-12T07:03:10.225Z,484
2023-02-12T07:04:10.733Z,484
2023-02-12T07:05:09.934Z,484
2023-02-12T07:06:10.180Z,488
2023-02-12T07:07:10.162Z,512
2023-02-12T07:08:09.911Z,560
2023-02-12T07:09:10.147Z,620
2023-02-12T07:10:10.108Z,676
2023-02-12T07:11:10.117Z,728
2023-02-12T07:12:09.576Z,748
2023-02-12T07:13:10.089Z,704
2023-02-12T07:14:10.033Z,724
2023-02-12T07:15:09.798Z,748
2023-02-12T07:16:10.337Z,812
2023-02-12T07:17:10.003Z,848
2023-02-12T07:18:10.114Z,868
2023-02-12T07:19:09.444Z,836
2023-02-12T07:20:09.974Z,856
2023-02-12T07:21:09.658Z,856
2023-02-12T07:22:09.886Z,828
2023-02-12T07:23:10.000Z,812
2023-02-12T07:24:09.606Z,816
2023-02-12T07:25:09.601Z,808
2023-02-12T07:26:09.595Z,844
2023-02-12T07:27:09.320Z,816
2023-02-12T07:28:10.018Z,792
2023-02-12T07:29:09.520Z,792
2023-02-12T07:30:09.524Z,812
2023-02-12T07:31:10.232Z,804
2023-02-12T07:32:10.084Z,764
2023-02-12T07:33:09.724Z,756
2023-02-12T07:34:09.801Z,772
2023-02-12T07:35:09.698Z,772
2023-02-12T07:36:09.668Z,772
2023-02-12T07:37:09.386Z,760
2023-02-12T07:38:09.118Z,764
2023-02-12T07:39:09.359Z,780
2023-02-12T07:40:09.593Z,840
2023-02-12T07:41:12.661Z,884
2023-02-12T07:42:09.326Z,924
2023-02-12T07:43:09.543Z,956
2023-02-12T07:44:09.274Z,920
2023-02-12T07:45:09.250Z,936
2023-02-12T07:46:09.236Z,980
2023-02-12T07:47:09.240Z,1024
2023-02-12T07:48:09.197Z,1032
2023-02-12T07:49:09.005Z,1048
2023-02-12T07:50:09.541Z,1080
2023-02-12T07:51:09.317Z,1124
2023-02-12T07:52:11.537Z,1184
2023-02-12T07:53:09.394Z,1224
2023-02-12T07:54:09.426Z,1288
2023-02-12T07:55:09.367Z,1296
2023-02-12T07:56:09.320Z,1312
2023-02-12T07:57:09.319Z,1312
2023-02-12T07:58:09.065Z,1300
2023-02-12T07:59:09.281Z,1316
2023-02-12T08:00:09.289Z,1344
2023-02-12T08:01:08.978Z,1316
2023-02-12T08:02:09.440Z,1328
2023-02-12T08:03:09.244Z,1376
2023-02-12T08:04:09.579Z,1404
2023-02-12T08:05:08.938Z,1420
2023-02-12T08:06:09.288Z,1404
2023-02-12T08:07:08.906Z,1376
2023-02-12T08:08:09.129Z,1376
2023-02-12T08:09:08.849Z,1356
2023-02-12T08:10:09.119Z,1308
2023-02-12T08:11:09.082Z,1344
2023-02-12T08:12:09.124Z,1348
2023-02-12T08:13:08.384Z,1352
2023-02-12T08:14:08.805Z,1256
2023-02-12T08:15:08.807Z,1192
2023-02-12T08:16:08.919Z,1160
2023-02-12T08:17:08.485Z,1124
2023-02-12T08:18:08.973Z,1156
2023-02-12T08:19:29.257Z,1236
2023-02-12T08:20:08.928Z,1312
2023-02-12T08:21:08.934Z,1444
2023-02-12T08:22:09.023Z,1532
2023-02-12T08:23:08.864Z,1548
2023-02-12T08:24:08.866Z,1604
2023-02-12T08:25:08.343Z,1652
2023-02-12T08:26:08.833Z,1708
2023-02-12T08:27:08.979Z,1688
2023-02-12T08:28:08.721Z,1680
2023-02-12T08:29:08.778Z,1612
2023-02-12T08:30:08.870Z,1564
2023-02-12T08:31:09.171Z,1512
2023-02-12T08:32:09.138Z,1460
2023-02-12T08:33:08.183Z,1448
2023-02-12T08:34:08.969Z,1464
2023-02-12T08:35:08.934Z,1492
2023-02-12T08:36:09.242Z,1528
2023-02-12T08:37:08.676Z,1604
2023-02-12T08:38:08.996Z,1660
2023-02-12T08:39:08.617Z,1760
2023-02-12T08:40:08.617Z,1776
2023-02-12T08:41:08.919Z,1788
2023-02-12T08:42:08.827Z,1732
2023-02-12T08:43:09.778Z,1656
2023-02-12T08:44:09.789Z,1624
2023-02-12T08:45:09.274Z,1672
2023-02-12T08:46:09.998Z,1768
2023-02-12T08:47:09.715Z,1868
2023-02-12T08:48:09.178Z,1832
2023-02-12T08:49:09.705Z,1780
2023-02-12T08:50:09.411Z,1732
2023-02-12T08:51:09.650Z,1688
2023-02-12T08:52:09.650Z,1708
2023-02-12T08:53:09.622Z,1748
2023-02-12T08:54:09.704Z,1712
2023-02-12T08:55:09.307Z,1656
2023-02-12T08:56:09.298Z,1644
2023-02-12T08:57:09.290Z,1600
2023-02-12T08:58:09.525Z,1556
2023-02-12T08:59:09.271Z,1604
2023-02-12T09:00:09.547Z,1732
2023-02-12T09:01:09.663Z,1808
2023-02-12T09:02:09.144Z,1776
2023-02-12T09:03:09.197Z,1728
2023-02-12T09:04:09.452Z,1740
2023-02-12T09:05:09.427Z,1740
2023-02-12T09:06:09.386Z,1772
2023-02-12T09:07:12.776Z,1848
2023-02-12T09:08:08.842Z,1948
2023-02-12T09:09:09.090Z,1984
2023-02-12T09:10:09.459Z,2088
2023-02-12T09:11:09.075Z,2176
2023-02-12T09:12:09.046Z,2212
2023-02-12T09:13:09.020Z,2208
2023-02-12T09:14:09.011Z,2244
2023-02-12T09:15:09.264Z,2360
2023-02-12T09:16:09.255Z,2476
2023-02-12T09:17:09.674Z,2504
2023-02-12T09:18:09.277Z,2452
2023-02-12T09:19:09.199Z,2336
2023-02-12T09:20:09.150Z,2252
2023-02-12T09:21:08.902Z,2224
2023-02-12T09:22:08.878Z,2268
2023-02-12T09:23:08.852Z,2332
2023-02-12T09:24:09.109Z,2356
2023-02-12T09:25:08.831Z,2428
2023-02-12T09:26:09.161Z,2512
2023-02-12T09:27:08.577Z,2480
2023-02-12T09:28:09.229Z,2524
2023-02-12T09:29:08.771Z,2568
2023-02-12T09:30:09.004Z,2604
2023-02-12T09:31:09.306Z,2632
2023-02-12T09:32:08.979Z,2800
2023-02-12T09:33:08.506Z,3040
2023-02-12T09:34:08.658Z,3136
2023-02-12T09:35:08.917Z,3132
2023-02-12T09:36:08.412Z,3200
2023-02-12T09:37:08.389Z,3396
2023-02-12T09:38:08.356Z,3404
2023-02-12T09:39:08.360Z,3340
2023-02-12T09:40:08.825Z,3224
2023-02-12T09:41:08.297Z,3120
2023-02-12T09:42:09.023Z,3272
2023-02-12T09:43:08.031Z,3648
2023-02-12T09:44:08.754Z,3656
2023-02-12T09:45:08.765Z,3632
2023-02-12T09:46:08.924Z,3632
2023-02-12T09:47:08.275Z,3460
2023-02-12T09:48:08.468Z,3272
2023-02-12T09:49:08.456Z,3412
2023-02-12T09:50:08.681Z,3352
2023-02-12T09:51:08.168Z,3196
2023-02-12T09:52:08.660Z,2980
2023-02-12T09:53:08.428Z,2984
2023-02-12T09:54:08.352Z,3108
2023-02-12T09:55:08.636Z,3404
2023-02-12T09:56:08.576Z,3888
2023-02-12T09:57:08.607Z,4172
2023-02-12T09:58:08.644Z,4060
2023-02-12T09:59:08.534Z,3952
2023-02-12T10:00:08.020Z,3828
2023-02-12T10:01:08.386Z,3704
2023-02-12T10:02:08.220Z,3696
2023-02-12T10:03:11.896Z,3688
2023-02-12T10:04:08.779Z,3628
2023-02-12T10:05:09.877Z,3592
2023-02-12T10:06:08.164Z,3620
2023-02-12T10:07:08.148Z,3568
2023-02-12T10:08:08.452Z,3412
2023-02-12T10:09:08.091Z,3340
2023-02-12T10:10:11.692Z,3756
2023-02-12T10:11:08.348Z,4448
2023-02-12T10:12:08.343Z,5576
2023-02-12T10:13:08.058Z,5524
2023-02-12T10:14:08.428Z,4924
2023-02-12T10:15:07.774Z,4296
2023-02-12T10:16:08.516Z,3844
2023-02-12T10:17:08.244Z,3600
2023-02-12T10:18:07.704Z,3580
2023-02-12T10:19:08.420Z,3464
2023-02-12T10:20:08.097Z,3396
2023-02-12T10:21:07.888Z,3320
2023-02-12T10:22:08.149Z,3368
2023-02-12T10:23:07.848Z,3404
2023-02-12T10:24:08.404Z,3420
2023-02-12T10:25:08.230Z,3484
2023-02-12T10:26:08.514Z,3424
2023-02-12T10:27:08.336Z,3420
2023-02-12T10:28:08.478Z,3444
2023-02-12T10:29:08.031Z,3428
2023-02-12T10:30:08.369Z,3376
2023-02-12T10:31:08.813Z,3364
2023-02-12T10:32:07.721Z,3320
2023-02-12T10:33:07.938Z,3144
2023-02-12T10:34:08.162Z,3008
2023-02-12T10:35:07.908Z,2864
2023-02-12T10:36:07.888Z,2756
2023-02-12T10:37:07.883Z,2584
2023-02-12T10:38:08.132Z,2432
2023-02-12T10:39:08.093Z,2288
2023-02-12T10:40:07.593Z,2232
2023-02-12T10:41:07.912Z,2280
2023-02-12T10:42:07.789Z,2404
2023-02-12T10:43:09.775Z,2896
2023-02-12T10:44:08.274Z,3300
2023-02-12T10:45:08.002Z,3512
2023-02-12T10:46:08.353Z,3840
2023-02-12T10:47:07.977Z,3988
2023-02-12T10:48:07.702Z,3800
2023-02-12T10:49:07.937Z,3412
2023-02-12T10:50:07.734Z,3436
2023-02-12T10:51:07.381Z,3552
2023-02-12T10:52:07.666Z,3472
2023-02-12T10:53:07.994Z,3236
2023-02-12T10:54:09.669Z,2992
2023-02-12T10:55:07.569Z,2800
2023-02-12T10:56:07.557Z,2668
2023-02-12T10:57:07.572Z,2664
2023-02-12T10:58:07.362Z,2732
2023-02-12T10:59:07.829Z,2796
2023-02-12T11:00:07.483Z,2964
2023-02-12T11:01:07.232Z,3152
2023-02-12T11:02:08.028Z,3136
2023-02-12T11:03:07.462Z,3140
2023-02-12T11:04:06.937Z,3380
2023-02-12T11:05:07.918Z,3572
2023-02-12T11:06:07.691Z,3656
2023-02-12T11:07:07.645Z,3692
2023-02-12T11:08:07.368Z,3852
2023-02-12T11:09:07.396Z,4276
2023-02-12T11:10:07.319Z,4560
2023-02-12T11:11:07.071Z,4728
2023-02-12T11:12:07.044Z,5156
2023-02-12T11:13:07.562Z,5340
2023-02-12T11:14:07.033Z,5560
2023-02-12T11:15:07.534Z,5728
2023-02-12T11:16:08.541Z,5848
2023-02-12T11:17:07.212Z,5664
2023-02-12T11:18:10.033Z,5128
2023-02-12T11:19:07.270Z,4552
2023-02-12T11:20:07.170Z,3984
2023-02-12T11:21:06.895Z,3776
2023-02-12T11:22:07.161Z,3760
2023-02-12T11:23:07.388Z,3816
2023-02-12T11:24:08.917Z,4068
2023-02-12T11:25:07.111Z,4376
2023-02-12T11:26:06.865Z,4764
2023-02-12T11:27:07.342Z,5188
2023-02-12T11:28:07.745Z,5408
2023-02-12T11:29:07.784Z,5452
2023-02-12T11:30:07.285Z,5376
2023-02-12T11:31:07.608Z,5320
2023-02-12T11:32:07.742Z,5272
2023-02-12T11:33:07.218Z,5164
2023-02-12T11:34:07.327Z,5160
2023-02-12T11:35:07.243Z,5296
2023-02-12T11:36:11.643Z,5224
2023-02-12T11:37:06.381Z,5048
2023-02-12T11:38:06.618Z,4780
2023-02-12T11:39:06.926Z,4440
2023-02-12T11:40:06.876Z,4376
2023-02-12T11:41:07.266Z,4688
2023-02-12T11:42:06.847Z,5324
2023-02-12T11:43:07.068Z,5840
2023-02-12T11:44:06.808Z,6276
2023-02-12T11:45:06.923Z,6392
2023-02-12T11:46:07.690Z,6136
2023-02-12T11:47:06.650Z,5712
2023-02-12T11:48:06.554Z,5688
2023-02-12T11:49:06.723Z,5632
2023-02-12T11:50:07.089Z,5820
2023-02-12T11:51:06.956Z,5768
2023-02-12T11:52:07.020Z,5644
2023-02-12T11:53:06.967Z,5384
2023-02-12T11:54:06.930Z,5268
2023-02-12T11:55:06.701Z,5264
2023-02-12T11:56:08.396Z,5216
2023-02-12T11:57:06.353Z,5016
2023-02-12T11:58:06.596Z,4772
2023-02-12T11:59:06.049Z,4704
2023-02-12T12:00:06.548Z,4668
2023-02-12T12:01:06.283Z,4780
2023-02-12T12:02:06.754Z,5120
2023-02-12T12:03:06.886Z,5620
2023-02-12T12:04:06.799Z,5496
2023-02-12T12:05:06.753Z,5480
2023-02-12T12:06:06.866Z,5380
2023-02-12T12:07:06.745Z,5064
2023-02-12T12:08:06.427Z,5000
2023-02-12T12:09:06.673Z,5312
2023-02-12T12:10:06.398Z,5872
2023-02-12T12:11:06.688Z,5980
2023-02-12T12:12:06.648Z,5832
2023-02-12T12:13:06.634Z,6064
2023-02-12T12:14:06.105Z,6208
2023-02-12T12:15:06.083Z,6356
2023-02-12T12:16:06.443Z,6820
2023-02-12T12:17:06.313Z,7132
2023-02-12T12:18:06.054Z,7212
2023-02-12T12:19:06.608Z,6476
2023-02-12T12:20:06.574Z,5856
2023-02-12T12:21:05.981Z,5420
2023-02-12T12:22:06.588Z,5232
2023-02-12T12:23:06.226Z,5316
2023-02-12T12:24:05.986Z,5716
2023-02-12T12:25:08.574Z,5720
2023-02-12T12:26:06.437Z,5328
2023-02-12T12:27:06.144Z,5140
2023-02-12T12:28:06.534Z,5072
2023-02-12T12:29:05.938Z,5212
2023-02-12T12:30:06.373Z,5492
2023-02-12T12:31:06.609Z,5604
2023-02-12T12:32:06.462Z,5392
2023-02-12T12:33:05.798Z,5092
2023-02-12T12:34:06.289Z,4596
2023-02-12T12:35:06.064Z,4092
2023-02-12T12:36:06.512Z,4088
2023-02-12T12:37:06.324Z,3948
2023-02-12T12:38:06.374Z,3736
2023-02-12T12:39:05.986Z,3672
2023-02-12T12:40:06.019Z,3568
2023-02-12T12:41:06.195Z,3652
2023-02-12T12:42:05.918Z,3928
2023-02-12T12:43:05.713Z,4012
2023-02-12T12:44:05.638Z,3980
2023-02-12T12:45:06.149Z,3812
2023-02-12T12:46:07.051Z,3676
2023-02-12T12:47:05.627Z,3660
2023-02-12T12:48:05.625Z,3732
2023-02-12T12:49:06.074Z,3728
2023-02-12T12:50:06.066Z,3700
2023-02-12T12:51:05.797Z,3748
2023-02-12T12:52:06.041Z,3764
2023-02-12T12:53:05.532Z,3792
2023-02-12T12:54:06.107Z,3928
2023-02-12T12:55:05.757Z,4028
2023-02-12T12:56:06.383Z,4148
2023-02-12T12:57:05.188Z,4172
2023-02-12T12:58:05.695Z,4104
2023-02-12T12:59:05.683Z,4084
2023-02-12T13:00:05.914Z,4324
2023-02-12T13:01:06.207Z,4472
2023-02-12T13:02:06.119Z,4476
2023-02-12T13:03:05.092Z,4484
2023-02-12T13:04:05.671Z,4348
2023-02-12T13:05:05.301Z,4508
2023-02-12T13:06:06.203Z,4576
2023-02-12T13:07:05.596Z,4488
2023-02-12T13:08:05.267Z,4528
2023-02-12T13:09:05.783Z,4636
2023-02-12T13:10:05.898Z,4700
2023-02-12T13:11:05.776Z,4404
2023-02-12T13:12:05.225Z,3976
2023-02-12T13:13:05.741Z,3524
2023-02-12T13:14:05.958Z,3192
2023-02-12T13:15:05.683Z,3164
2023-02-12T13:16:05.727Z,3328
2023-02-12T13:17:06.791Z,3596
2023-02-12T13:18:04.852Z,3952
2023-02-12T13:19:05.435Z,4048
2023-02-12T13:20:05.343Z,3816
2023-02-12T13:21:05.578Z,3656
2023-02-12T13:22:05.664Z,3684
2023-02-12T13:23:05.611Z,3768
2023-02-12T13:24:05.591Z,3536
2023-02-12T13:25:05.343Z,3200
2023-02-12T13:26:05.860Z,3284
2023-02-12T13:27:04.999Z,3668
2023-02-12T13:28:05.607Z,3928
2023-02-12T13:29:04.951Z,4188
2023-02-12T13:30:05.545Z,4264
2023-02-12T13:31:24.829Z,3820
2023-02-12T13:32:06.332Z,3144
2023-02-12T13:33:05.227Z,2920
2023-02-12T13:34:05.468Z,2960
2023-02-12T13:35:05.183Z,3040
2023-02-12T13:36:06.077Z,2636
2023-02-12T13:37:05.415Z,2184
2023-02-12T13:38:05.682Z,2140
2023-02-12T13:39:05.404Z,2364
2023-02-12T13:40:05.392Z,2836
2023-02-12T13:41:05.662Z,3176
2023-02-12T13:42:05.763Z,3328
2023-02-12T13:43:04.816Z,3248
2023-02-12T13:44:05.085Z,3152
2023-02-12T13:45:05.361Z,3192
2023-02-12T13:46:06.105Z,3304
2023-02-12T13:47:05.280Z,3244
2023-02-12T13:48:05.505Z,3016
2023-02-12T13:49:05.536Z,2768
2023-02-12T13:50:05.248Z,2624
2023-02-12T13:51:08.465Z,2576
2023-02-12T13:52:05.433Z,2588
2023-02-12T13:53:05.289Z,2580
2023-02-12T13:54:05.174Z,2568
2023-02-12T13:55:05.157Z,2620
2023-02-12T13:56:05.709Z,2612
2023-02-12T13:57:05.373Z,2544
2023-02-12T13:58:05.468Z,2408
2023-02-12T13:59:05.071Z,2280
2023-02-12T14:00:04.839Z,2224
2023-02-12T14:01:05.026Z,2272
2023-02-12T14:02:05.450Z,2428
2023-02-12T14:03:05.014Z,2608
2023-02-12T14:04:04.741Z,2768
2023-02-12T14:05:04.761Z,2812
2023-02-12T14:06:05.191Z,2596
2023-02-12T14:07:07.908Z,2272
2023-02-12T14:08:05.218Z,2100
2023-02-12T14:09:05.188Z,1944
2023-02-12T14:10:04.920Z,1788
2023-02-12T14:11:05.151Z,1680
2023-02-12T14:12:04.940Z,1660
2023-02-12T14:13:05.123Z,1680
2023-02-12T14:14:05.199Z,1580
2023-02-12T14:15:04.877Z,1472